Goodridge, Minnesota
Current Conditions -  °F | °C
As of 9:55 AM on Saturday 20 Dec 2014 (Local Time) from KTVF Reporting Station
Overcast Overcast  
Wind Chill: 18°   Ceiling: 500
Heat Index: 28°   Visibility: 2mi
Dew Point: 28°   Wind: 13mph
Humidity: 100%   Direction: 190°S
Pressure: 30.01"   Gusts: NA
Location:  48.14°N, 95.81°W
Report Text: KTVF 201555Z AUTO 19011KT 2SM OVC005 M02/M02 A3001 RMK AO1
Loading
Personal Weather Stations






























Interactive Weather Map New forecast layout! Learn more

10-Day Weather Forecast

Advertisements
Track Severe Weather on mobile